sensor_id;sensor_type;location;lat;lon;timestamp;temperature;humidity
7942;HTU21D;4016;50.758;7.150;2023-04-28T00:04:35;12.35;88.13
7942;HTU21D;4016;50.758;7.150;2023-04-28T00:09:35;12.42;86.48
7942;HTU21D;4016;50.758;7.150;2023-04-28T00:14:35;12.38;85.62
7942;HTU21D;4016;50.758;7.150;2023-04-28T00:19:36;12.29;86.32
7942;HTU21D;4016;50.758;7.150;2023-04-28T00:24:37;12.32;87.14
7942;HTU21D;4016;50.758;7.150;2023-04-28T00:29:38;12.37;87.93
7942;HTU21D;4016;50.758;7.150;2023-04-28T00:34:38;12.36;89.21
7942;HTU21D;4016;50.758;7.150;2023-04-28T00:39:38;12.41;91.49
7942;HTU21D;4016;50.758;7.150;2023-04-28T00:44:40;12.44;92.53
7942;HTU21D;4016;50.758;7.150;2023-04-28T00:49:41;12.46;97.46
7942;HTU21D;4016;50.758;7.150;2023-04-28T00:54:41;12.42;99.26
7942;HTU21D;4016;50.758;7.150;2023-04-28T00:59:41;12.35;98.82
7942;HTU21D;4016;50.758;7.150;2023-04-28T01:04:43;12.32;103.13
7942;HTU21D;4016;50.758;7.150;2023-04-28T01:09:44;12.22;102.01
7942;HTU21D;4016;50.758;7.150;2023-04-28T01:14:48;12.27;101.86
7942;HTU21D;4016;50.758;7.150;2023-04-28T01:19:48;12.12;103.50
7942;HTU21D;4016;50.758;7.150;2023-04-28T01:24:48;12.12;103.90
7942;HTU21D;4016;50.758;7.150;2023-04-28T01:29:49;12.03;105.75
7942;HTU21D;4016;50.758;7.150;2023-04-28T01:34:49;11.98;105.51
7942;HTU21D;4016;50.758;7.150;2023-04-28T01:39:50;11.96;106.53
7942;HTU21D;4016;50.758;7.150;2023-04-28T01:44:50;11.88;108.49
7942;HTU21D;4016;50.758;7.150;2023-04-28T01:49:51;11.85;111.64
7942;HTU21D;4016;50.758;7.150;2023-04-28T01:54:51;11.86;112.03
7942;HTU21D;4016;50.758;7.150;2023-04-28T01:59:51;11.79;113.33
7942;HTU21D;4016;50.758;7.150;2023-04-28T02:04:52;11.70;114.86
7942;HTU21D;4016;50.758;7.150;2023-04-28T02:09:53;11.69;116.02
7942;HTU21D;4016;50.758;7.150;2023-04-28T02:14:53;11.68;118.18
7942;HTU21D;4016;50.758;7.150;2023-04-28T02:19:54;11.61;117.44
7942;HTU21D;4016;50.758;7.150;2023-04-28T02:24:56;11.62;118.99
7942;HTU21D;4016;50.758;7.150;2023-04-28T02:29:56;11.54;118.99
7942;HTU21D;4016;50.758;7.150;2023-04-28T02:34:57;11.41;118.99
7942;HTU21D;4016;50.758;7.150;2023-04-28T02:39:57;11.37;118.99
7942;HTU21D;4016;50.758;7.150;2023-04-28T02:44:57;11.38;118.99
7942;HTU21D;4016;50.758;7.150;2023-04-28T02:49:58;11.34;118.99
7942;HTU21D;4016;50.758;7.150;2023-04-28T02:54:58;11.28;118.99
7942;HTU21D;4016;50.758;7.150;2023-04-28T02:59:59;11.29;118.99
7942;HTU21D;4016;50.758;7.150;2023-04-28T03:04:59;11.32;118.99
7942;HTU21D;4016;50.758;7.150;2023-04-28T03:10:00;11.19;118.99
7942;HTU21D;4016;50.758;7.150;2023-04-28T03:15:00;11.22;118.99
7942;HTU21D;4016;50.758;7.150;2023-04-28T03:20:01;11.17;118.99
7942;HTU21D;4016;50.758;7.150;2023-04-28T03:25:02;11.23;118.99
7942;HTU21D;4016;50.758;7.150;2023-04-28T03:30:03;11.19;118.99
7942;HTU21D;4016;50.758;7.150;2023-04-28T03:35:03;11.08;118.99
7942;HTU21D;4016;50.758;7.150;2023-04-28T03:40:04;11.05;118.99
7942;HTU21D;4016;50.758;7.150;2023-04-28T03:45:05;10.93;118.99
7942;HTU21D;4016;50.758;7.150;2023-04-28T03:50:06;10.90;118.99
7942;HTU21D;4016;50.758;7.150;2023-04-28T03:55:07;10.96;118.99
7942;HTU21D;4016;50.758;7.150;2023-04-28T04:00:08;11.04;118.99
7942;HTU21D;4016;50.758;7.150;2023-04-28T04:05:09;10.88;118.99
7942;HTU21D;4016;50.758;7.150;2023-04-28T04:10:10;10.92;118.99
7942;HTU21D;4016;50.758;7.150;2023-04-28T04:15:10;10.87;118.99
7942;HTU21D;4016;50.758;7.150;2023-04-28T04:20:11;10.92;118.99
7942;HTU21D;4016;50.758;7.150;2023-04-28T04:25:11;10.88;118.99
7942;HTU21D;4016;50.758;7.150;2023-04-28T04:30:12;10.70;118.99
7942;HTU21D;4016;50.758;7.150;2023-04-28T04:35:12;10.71;118.99
7942;HTU21D;4016;50.758;7.150;2023-04-28T04:40:13;10.80;118.99
7942;HTU21D;4016;50.758;7.150;2023-04-28T04:45:13;10.81;118.99
7942;HTU21D;4016;50.758;7.150;2023-04-28T04:50:13;10.72;118.99
7942;HTU21D;4016;50.758;7.150;2023-04-28T04:55:14;10.68;118.99
7942;HTU21D;4016;50.758;7.150;2023-04-28T05:00:15;10.62;118.99
7942;HTU21D;4016;50.758;7.150;2023-04-28T05:05:16;10.50;118.99
7942;HTU21D;4016;50.758;7.150;2023-04-28T05:10:16;10.70;118.99
7942;HTU21D;4016;50.758;7.150;2023-04-28T05:15:16;10.79;118.99
7942;HTU21D;4016;50.758;7.150;2023-04-28T05:20:17;10.70;118.99
7942;HTU21D;4016;50.758;7.150;2023-04-28T05:25:17;10.65;118.99
7942;HTU21D;4016;50.758;7.150;2023-04-28T05:30:18;10.77;118.99
7942;HTU21D;4016;50.758;7.150;2023-04-28T05:35:18;10.74;118.99
7942;HTU21D;4016;50.758;7.150;2023-04-28T05:40:19;10.77;118.99
7942;HTU21D;4016;50.758;7.150;2023-04-28T05:45:19;10.75;118.99
7942;HTU21D;4016;50.758;7.150;2023-04-28T05:50:20;10.69;118.99
7942;HTU21D;4016;50.758;7.150;2023-04-28T05:55:21;10.72;118.99
7942;HTU21D;4016;50.758;7.150;2023-04-28T06:00:21;10.83;118.99
7942;HTU21D;4016;50.758;7.150;2023-04-28T06:05:22;10.89;118.99
7942;HTU21D;4016;50.758;7.150;2023-04-28T06:10:24;10.93;118.99
7942;HTU21D;4016;50.758;7.150;2023-04-28T06:15:25;10.95;118.99
7942;HTU21D;4016;50.758;7.150;2023-04-28T06:20:25;10.97;118.99
7942;HTU21D;4016;50.758;7.150;2023-04-28T06:25:25;11.13;118.99
7942;HTU21D;4016;50.758;7.150;2023-04-28T06:30:26;11.33;118.99
7942;HTU21D;4016;50.758;7.150;2023-04-28T06:35:27;11.38;118.99
7942;HTU21D;4016;50.758;7.150;2023-04-28T06:40:27;11.52;118.99
7942;HTU21D;4016;50.758;7.150;2023-04-28T06:45:29;11.62;118.99
7942;HTU21D;4016;50.758;7.150;2023-04-28T06:50:29;11.82;118.99
7942;HTU21D;4016;50.758;7.150;2023-04-28T06:55:30;11.97;118.99
7942;HTU21D;4016;50.758;7.150;2023-04-28T07:00:30;12.16;118.99
7942;HTU21D;4016;50.758;7.150;2023-04-28T07:05:31;12.31;118.99
7942;HTU21D;4016;50.758;7.150;2023-04-28T07:10:32;12.55;118.99
7942;HTU21D;4016;50.758;7.150;2023-04-28T07:15:33;12.77;118.99
7942;HTU21D;4016;50.758;7.150;2023-04-28T07:20:34;12.93;118.99
7942;HTU21D;4016;50.758;7.150;2023-04-28T07:25:34;13.40;118.99
7942;HTU21D;4016;50.758;7.150;2023-04-28T07:30:35;14.06;118.99
7942;HTU21D;4016;50.758;7.150;2023-04-28T07:35:35;14.29;117.38
7942;HTU21D;4016;50.758;7.150;2023-04-28T07:40:36;14.36;115.70
7942;HTU21D;4016;50.758;7.150;2023-04-28T07:45:39;14.49;117.37
7942;HTU21D;4016;50.758;7.150;2023-04-28T07:50:40;14.65;116.83
7942;HTU21D;4016;50.758;7.150;2023-04-28T07:55:40;14.57;117.54
7942;HTU21D;4016;50.758;7.150;2023-04-28T08:00:44;14.51;116.93
7942;HTU21D;4016;50.758;7.150;2023-04-28T08:05:45;14.64;115.77
7942;HTU21D;4016;50.758;7.150;2023-04-28T08:10:45;14.78;116.92
7942;HTU21D;4016;50.758;7.150;2023-04-28T08:15:47;14.75;115.73
7942;HTU21D;4016;50.758;7.150;2023-04-28T08:20:47;15.08;115.46
7942;HTU21D;4016;50.758;7.150;2023-04-28T08:25:49;15.49;116.79
7942;HTU21D;4016;50.758;7.150;2023-04-28T08:30:49;15.97;114.25
7942;HTU21D;4016;50.758;7.150;2023-04-28T08:35:49;16.27;112.59
7942;HTU21D;4016;50.758;7.150;2023-04-28T08:40:50;16.44;110.36
7942;HTU21D;4016;50.758;7.150;2023-04-28T08:45:51;16.62;110.32
7942;HTU21D;4016;50.758;7.150;2023-04-28T08:50:52;16.77;107.48
7942;HTU21D;4016;50.758;7.150;2023-04-28T08:55:55;16.85;107.74
7942;HTU21D;4016;50.758;7.150;2023-04-28T09:00:56;16.86;107.29
7942;HTU21D;4016;50.758;7.150;2023-04-28T09:05:56;16.63;107.83
7942;HTU21D;4016;50.758;7.150;2023-04-28T09:11:10;16.65;108.89
7942;HTU21D;4016;50.758;7.150;2023-04-28T09:16:12;16.70;110.63
7942;HTU21D;4016;50.758;7.150;2023-04-28T09:21:13;16.62;112.58
7942;HTU21D;4016;50.758;7.150;2023-04-28T09:26:13;16.59;113.53
7942;HTU21D;4016;50.758;7.150;2023-04-28T09:31:23;16.61;114.47
7942;HTU21D;4016;50.758;7.150;2023-04-28T09:36:28;16.70;114.75
7942;HTU21D;4016;50.758;7.150;2023-04-28T09:41:41;16.96;114.07
7942;HTU21D;4016;50.758;7.150;2023-04-28T09:46:43;17.28;111.99
7942;HTU21D;4016;50.758;7.150;2023-04-28T09:51:43;17.50;113.76
7942;HTU21D;4016;50.758;7.150;2023-04-28T09:56:45;17.30;112.03
7942;HTU21D;4016;50.758;7.150;2023-04-28T10:01:46;17.23;112.87
7942;HTU21D;4016;50.758;7.150;2023-04-28T10:06:47;17.15;114.51
7942;HTU21D;4016;50.758;7.150;2023-04-28T10:11:48;17.13;113.84
7942;HTU21D;4016;50.758;7.150;2023-04-28T10:16:49;17.08;114.58
7942;HTU21D;4016;50.758;7.150;2023-04-28T10:27:10;17.44;115.61
7942;HTU21D;4016;50.758;7.150;2023-04-28T10:32:22;17.67;114.88
7942;HTU21D;4016;50.758;7.150;2023-04-28T10:43:03;18.03;114.08
7942;HTU21D;4016;50.758;7.150;2023-04-28T10:48:04;17.92;113.42
7942;HTU21D;4016;50.758;7.150;2023-04-28T10:53:05;18.09;117.79
7942;HTU21D;4016;50.758;7.150;2023-04-28T11:03:55;18.70;115.36
7942;HTU21D;4016;50.758;7.150;2023-04-28T11:19:23;19.12;109.76
7942;HTU21D;4016;50.758;7.150;2023-04-28T11:24:25;19.15;109.35
7942;HTU21D;4016;50.758;7.150;2023-04-28T11:29:36;19.27;111.55
7942;HTU21D;4016;50.758;7.150;2023-04-28T11:34:37;19.22;108.23
7942;HTU21D;4016;50.758;7.150;2023-04-28T11:39:37;19.53;108.64
7942;HTU21D;4016;50.758;7.150;2023-04-28T11:44:38;19.72;109.49
7942;HTU21D;4016;50.758;7.150;2023-04-28T11:49:43;20.13;107.31
7942;HTU21D;4016;50.758;7.150;2023-04-28T11:54:44;20.14;105.92
7942;HTU21D;4016;50.758;7.150;2023-04-28T11:59:44;20.29;102.32
7942;HTU21D;4016;50.758;7.150;2023-04-28T12:04:45;20.11;102.15
7942;HTU21D;4016;50.758;7.150;2023-04-28T12:15:03;20.72;102.89
7942;HTU21D;4016;50.758;7.150;2023-04-28T12:20:07;20.86;103.98
7942;HTU21D;4016;50.758;7.150;2023-04-28T12:25:11;21.57;99.26
7942;HTU21D;4016;50.758;7.150;2023-04-28T12:35:26;21.94;94.94
7942;HTU21D;4016;50.758;7.150;2023-04-28T12:40:26;22.31;92.66
7942;HTU21D;4016;50.758;7.150;2023-04-28T12:45:27;22.84;88.99
7942;HTU21D;4016;50.758;7.150;2023-04-28T12:50:29;22.93;89.16
7942;HTU21D;4016;50.758;7.150;2023-04-28T12:55:32;23.26;87.43
7942;HTU21D;4016;50.758;7.150;2023-04-28T13:00:32;23.66;84.18
7942;HTU21D;4016;50.758;7.150;2023-04-28T13:05:33;23.86;81.19
7942;HTU21D;4016;50.758;7.150;2023-04-28T13:10:34;23.86;82.24
7942;HTU21D;4016;50.758;7.150;2023-04-28T13:15:34;23.64;79.95
7942;HTU21D;4016;50.758;7.150;2023-04-28T13:20:35;23.18;81.85
7942;HTU21D;4016;50.758;7.150;2023-04-28T13:25:36;22.52;89.51
7942;HTU21D;4016;50.758;7.150;2023-04-28T13:30:36;22.69;89.98
7942;HTU21D;4016;50.758;7.150;2023-04-28T13:35:37;22.29;91.91
7942;HTU21D;4016;50.758;7.150;2023-04-28T13:40:37;22.51;90.72
7942;HTU21D;4016;50.758;7.150;2023-04-28T13:45:37;22.70;88.61
7942;HTU21D;4016;50.758;7.150;2023-04-28T13:50:38;23.24;84.39
7942;HTU21D;4016;50.758;7.150;2023-04-28T13:55:38;22.87;84.93
7942;HTU21D;4016;50.758;7.150;2023-04-28T14:00:38;22.54;87.93
7942;HTU21D;4016;50.758;7.150;2023-04-28T14:05:39;22.36;91.30
7942;HTU21D;4016;50.758;7.150;2023-04-28T14:10:39;22.50;85.93
7942;HTU21D;4016;50.758;7.150;2023-04-28T14:15:40;22.88;86.94
7942;HTU21D;4016;50.758;7.150;2023-04-28T14:20:41;23.39;86.45
7942;HTU21D;4016;50.758;7.150;2023-04-28T14:25:41;23.95;83.36
7942;HTU21D;4016;50.758;7.150;2023-04-28T14:30:42;23.29;79.94
7942;HTU21D;4016;50.758;7.150;2023-04-28T14:35:43;23.05;83.32
7942;HTU21D;4016;50.758;7.150;2023-04-28T14:40:43;22.86;82.63
7942;HTU21D;4016;50.758;7.150;2023-04-28T14:45:43;22.61;85.12
7942;HTU21D;4016;50.758;7.150;2023-04-28T14:50:44;22.72;85.34
7942;HTU21D;4016;50.758;7.150;2023-04-28T14:55:45;22.67;88.99
7942;HTU21D;4016;50.758;7.150;2023-04-28T15:00:45;23.40;85.70
7942;HTU21D;4016;50.758;7.150;2023-04-28T15:05:46;24.14;81.69
7942;HTU21D;4016;50.758;7.150;2023-04-28T15:10:46;24.05;75.63
7942;HTU21D;4016;50.758;7.150;2023-04-28T15:15:46;23.79;74.58
7942;HTU21D;4016;50.758;7.150;2023-04-28T15:20:48;23.37;73.14
7942;HTU21D;4016;50.758;7.150;2023-04-28T15:25:48;22.77;70.91
7942;HTU21D;4016;50.758;7.150;2023-04-28T15:30:52;22.82;71.81
7942;HTU21D;4016;50.758;7.150;2023-04-28T15:35:53;23.08;69.49
7942;HTU21D;4016;50.758;7.150;2023-04-28T15:40:53;22.63;67.88
7942;HTU21D;4016;50.758;7.150;2023-04-28T15:45:53;22.17;69.92
7942;HTU21D;4016;50.758;7.150;2023-04-28T15:50:54;22.10;70.83
7942;HTU21D;4016;50.758;7.150;2023-04-28T15:55:55;22.20;70.05
7942;HTU21D;4016;50.758;7.150;2023-04-28T16:00:55;21.99;70.29
7942;HTU21D;4016;50.758;7.150;2023-04-28T16:05:58;22.07;69.16
7942;HTU21D;4016;50.758;7.150;2023-04-28T16:11:00;21.81;66.16
7942;HTU21D;4016;50.758;7.150;2023-04-28T16:16:02;22.19;69.28
7942;HTU21D;4016;50.758;7.150;2023-04-28T16:21:02;22.32;67.84
7942;HTU21D;4016;50.758;7.150;2023-04-28T16:26:03;22.21;72.05
7942;HTU21D;4016;50.758;7.150;2023-04-28T16:31:03;21.88;80.58
7942;HTU21D;4016;50.758;7.150;2023-04-28T16:36:04;21.82;82.98
7942;HTU21D;4016;50.758;7.150;2023-04-28T16:41:04;20.94;86.23
7942;HTU21D;4016;50.758;7.150;2023-04-28T16:46:05;20.13;91.67
7942;HTU21D;4016;50.758;7.150;2023-04-28T16:51:09;20.04;93.86
7942;HTU21D;4016;50.758;7.150;2023-04-28T16:56:10;20.18;89.76
7942;HTU21D;4016;50.758;7.150;2023-04-28T17:01:10;20.56;88.75
7942;HTU21D;4016;50.758;7.150;2023-04-28T17:06:11;20.72;86.83
7942;HTU21D;4016;50.758;7.150;2023-04-28T17:11:15;20.73;85.61
7942;HTU21D;4016;50.758;7.150;2023-04-28T17:16:16;20.77;83.42
7942;HTU21D;4016;50.758;7.150;2023-04-28T17:21:17;20.64;80.60
7942;HTU21D;4016;50.758;7.150;2023-04-28T17:26:17;20.95;80.62
7942;HTU21D;4016;50.758;7.150;2023-04-28T17:31:18;19.94;86.43
7942;HTU21D;4016;50.758;7.150;2023-04-28T17:36:19;18.78;93.79
7942;HTU21D;4016;50.758;7.150;2023-04-28T17:41:22;18.44;97.16
7942;HTU21D;4016;50.758;7.150;2023-04-28T17:46:22;18.26;97.61
7942;HTU21D;4016;50.758;7.150;2023-04-28T17:51:23;17.98;98.93
7942;HTU21D;4016;50.758;7.150;2023-04-28T17:56:23;17.78;100.66
7942;HTU21D;4016;50.758;7.150;2023-04-28T18:01:23;17.69;101.41
7942;HTU21D;4016;50.758;7.150;2023-04-28T18:06:24;17.37;101.88
7942;HTU21D;4016;50.758;7.150;2023-04-28T18:11:26;17.52;101.83
7942;HTU21D;4016;50.758;7.150;2023-04-28T18:16:27;17.23;102.28
7942;HTU21D;4016;50.758;7.150;2023-04-28T18:21:27;17.04;103.92
7942;HTU21D;4016;50.758;7.150;2023-04-28T18:26:28;16.88;104.76
7942;HTU21D;4016;50.758;7.150;2023-04-28T18:31:28;16.87;104.61
7942;HTU21D;4016;50.758;7.150;2023-04-28T18:36:32;16.76;103.86
7942;HTU21D;4016;50.758;7.150;2023-04-28T18:41:32;16.81;103.30
7942;HTU21D;4016;50.758;7.150;2023-04-28T18:46:33;16.67;104.57
7942;HTU21D;4016;50.758;7.150;2023-04-28T18:51:34;16.70;103.26
7942;HTU21D;4016;50.758;7.150;2023-04-28T18:56:35;16.72;104.05
7942;HTU21D;4016;50.758;7.150;2023-04-28T19:01:36;16.58;103.45
7942;HTU21D;4016;50.758;7.150;2023-04-28T19:06:37;16.54;103.44
7942;HTU21D;4016;50.758;7.150;2023-04-28T19:11:37;16.42;103.61
7942;HTU21D;4016;50.758;7.150;2023-04-28T19:16:37;16.29;105.06
7942;HTU21D;4016;50.758;7.150;2023-04-28T19:21:42;16.28;104.75
7942;HTU21D;4016;50.758;7.150;2023-04-28T19:26:43;16.32;104.73
7942;HTU21D;4016;50.758;7.150;2023-04-28T19:31:44;16.25;104.25
7942;HTU21D;4016;50.758;7.150;2023-04-28T19:36:44;16.29;103.45
7942;HTU21D;4016;50.758;7.150;2023-04-28T19:41:44;16.20;104.49
7942;HTU21D;4016;50.758;7.150;2023-04-28T19:46:46;16.25;104.14
7942;HTU21D;4016;50.758;7.150;2023-04-28T19:51:47;16.19;104.64
7942;HTU21D;4016;50.758;7.150;2023-04-28T19:56:47;16.03;105.85
7942;HTU21D;4016;50.758;7.150;2023-04-28T20:01:47;16.13;105.43
7942;HTU21D;4016;50.758;7.150;2023-04-28T20:06:49;15.96;106.50
7942;HTU21D;4016;50.758;7.150;2023-04-28T20:11:49;15.82;107.83
7942;HTU21D;4016;50.758;7.150;2023-04-28T20:16:49;15.84;108.04
7942;HTU21D;4016;50.758;7.150;2023-04-28T20:21:50;15.73;109.13
7942;HTU21D;4016;50.758;7.150;2023-04-28T20:26:51;15.70;109.09
7942;HTU21D;4016;50.758;7.150;2023-04-28T20:31:53;15.72;109.13
7942;HTU21D;4016;50.758;7.150;2023-04-28T20:36:55;15.63;109.80
7942;HTU21D;4016;50.758;7.150;2023-04-28T20:41:57;15.59;110.20
7942;HTU21D;4016;50.758;7.150;2023-04-28T20:46:58;15.62;110.35
7942;HTU21D;4016;50.758;7.150;2023-04-28T20:52:01;15.52;111.50
7942;HTU21D;4016;50.758;7.150;2023-04-28T20:57:03;15.52;111.63
7942;HTU21D;4016;50.758;7.150;2023-04-28T21:02:03;15.47;112.13
7942;HTU21D;4016;50.758;7.150;2023-04-28T21:07:04;15.46;112.44
7942;HTU21D;4016;50.758;7.150;2023-04-28T21:12:04;15.42;112.85
7942;HTU21D;4016;50.758;7.150;2023-04-28T21:17:05;15.49;112.06
7942;HTU21D;4016;50.758;7.150;2023-04-28T21:22:05;15.43;113.01
7942;HTU21D;4016;50.758;7.150;2023-04-28T21:27:05;15.36;113.86
7942;HTU21D;4016;50.758;7.150;2023-04-28T21:32:06;15.42;111.27
7942;HTU21D;4016;50.758;7.150;2023-04-28T21:37:06;15.30;111.49
7942;HTU21D;4016;50.758;7.150;2023-04-28T21:42:07;15.19;112.17
7942;HTU21D;4016;50.758;7.150;2023-04-28T21:47:07;15.11;113.03
7942;HTU21D;4016;50.758;7.150;2023-04-28T21:52:08;15.11;113.23
7942;HTU21D;4016;50.758;7.150;2023-04-28T21:57:08;15.09;113.77
7942;HTU21D;4016;50.758;7.150;2023-04-28T22:02:09;14.93;114.12
7942;HTU21D;4016;50.758;7.150;2023-04-28T22:07:09;14.98;114.74
7942;HTU21D;4016;50.758;7.150;2023-04-28T22:12:10;14.77;116.19
7942;HTU21D;4016;50.758;7.150;2023-04-28T22:17:10;14.78;116.22
7942;HTU21D;4016;50.758;7.150;2023-04-28T22:22:10;14.83;118.28
7942;HTU21D;4016;50.758;7.150;2023-04-28T22:27:11;14.39;118.99
7942;HTU21D;4016;50.758;7.150;2023-04-28T22:32:11;14.28;118.99
7942;HTU21D;4016;50.758;7.150;2023-04-28T22:37:12;14.14;118.99
7942;HTU21D;4016;50.758;7.150;2023-04-28T22:42:12;13.99;118.99
7942;HTU21D;4016;50.758;7.150;2023-04-28T22:47:13;13.93;118.99
7942;HTU21D;4016;50.758;7.150;2023-04-28T22:52:14;13.98;118.99
7942;HTU21D;4016;50.758;7.150;2023-04-28T22:57:17;13.90;118.99
7942;HTU21D;4016;50.758;7.150;2023-04-28T23:02:17;13.92;118.99
7942;HTU21D;4016;50.758;7.150;2023-04-28T23:07:18;13.83;118.99
7942;HTU21D;4016;50.758;7.150;2023-04-28T23:12:18;13.91;118.99
7942;HTU21D;4016;50.758;7.150;2023-04-28T23:17:19;13.98;118.99
7942;HTU21D;4016;50.758;7.150;2023-04-28T23:22:19;13.96;118.99
7942;HTU21D;4016;50.758;7.150;2023-04-28T23:27:20;13.95;118.99
7942;HTU21D;4016;50.758;7.150;2023-04-28T23:32:20;13.66;118.99
7942;HTU21D;4016;50.758;7.150;2023-04-28T23:37:20;13.48;118.99
7942;HTU21D;4016;50.758;7.150;2023-04-28T23:42:21;13.40;118.99
7942;HTU21D;4016;50.758;7.150;2023-04-28T23:47:22;13.50;118.99
7942;HTU21D;4016;50.758;7.150;2023-04-28T23:52:22;13.39;118.99
7942;HTU21D;4016;50.758;7.150;2023-04-28T23:57:23;13.29;118.99
